Time;durP1;ratioP1;P1;durP2;ratioP2;P2;SDS_P1;SDS_P2;PMS_P1;PMS_P2;Temp;Humidity;BMP_temperature;BMP_pressure;BME280_temperature;BME280_humidity;BME280_pressure;Samples;Min_cycle;Max_cycle;Signal;HPM_P1;HPM_P2
2022/04/02 00:00:47;;;;;;;6.75;3.78;;;3.60;99.90;;;;;;5038285;28;20057;-85
2022/04/02 00:03:13;;;;;;;5.35;3.10;;;3.60;99.90;;;;;;5028185;28;20029;-87
2022/04/02 00:05:39;;;;;;;5.00;2.92;;;;;;;;;;5027757;28;20045;-84
2022/04/02 00:08:05;;;;;;;5.72;3.30;;;3.70;99.90;;;;;;5025016;28;20033;-81
2022/04/02 00:10:31;;;;;;;6.50;3.75;;;2.60;99.90;;;;;;5045241;28;20089;-82
2022/04/02 00:12:57;;;;;;;6.50;3.47;;;3.90;99.90;;;;;;5050807;28;20048;-83
2022/04/02 00:15:24;;;;;;;4.57;3.17;;;3.50;99.90;;;;;;5019386;28;20026;-86
2022/04/02 00:17:50;;;;;;;5.85;3.15;;;;;;;;;;5019905;28;20037;-83
2022/04/02 00:20:17;;;;;;;5.70;3.47;;;3.50;99.90;;;;;;5040393;28;20021;-84
2022/04/02 00:23:35;;;;;;;6.60;3.72;;;;;;;;;;5019554;28;20700;-84
2022/04/02 00:25:32;;;;;;;7.60;3.45;;;3.60;99.90;;;;;;5046344;28;20085;-83
2022/04/02 00:27:58;;;;;;;5.82;3.80;;;3.50;99.90;;;;;;5028274;28;20022;-82
2022/04/02 00:30:24;;;;;;;7.32;3.60;;;2.80;99.90;;;;;;5037279;28;20029;-83
2022/04/02 00:32:50;;;;;;;7.68;3.60;;;3.50;99.90;;;;;;5034760;28;20064;-86
2022/04/02 00:35:16;;;;;;;7.70;4.00;;;3.40;99.90;;;;;;5036150;28;20052;-86
2022/04/02 00:37:43;;;;;;;7.90;3.80;;;3.70;99.90;;;;;;5155076;23;20033;-77
2022/04/02 00:40:10;;;;;;;5.13;3.35;;;3.50;99.90;;;;;;5012878;28;20025;-78
2022/04/02 00:42:38;;;;;;;5.82;3.70;;;3.50;99.90;;;;;;5027903;28;20068;-78
2022/04/02 00:45:05;;;;;;;5.63;3.70;;;3.40;99.90;;;;;;5014718;28;20100;-77
2022/04/02 00:47:32;;;;;;;6.28;3.92;;;3.30;99.90;;;;;;5018666;28;20025;-78
2022/04/02 00:49:58;;;;;;;5.05;3.35;;;3.30;99.90;;;;;;5040936;28;20082;-78
2022/04/02 00:52:28;;;;;;;8.48;3.70;;;3.40;99.90;;;;;;5045346;28;20044;-76
2022/04/02 00:54:55;;;;;;;5.25;3.28;;;3.50;99.90;;;;;;5027423;28;20026;-77
2022/04/02 00:57:24;;;;;;;5.57;3.30;;;3.50;99.90;;;;;;5035106;28;20126;-79
2022/04/02 00:59:51;;;;;;;9.10;3.53;;;3.50;99.90;;;;;;5034697;28;20036;-80
2022/04/02 01:02:19;;;;;;;7.30;3.63;;;3.60;99.90;;;;;;5025863;28;20029;-79
2022/04/02 01:04:47;;;;;;;9.23;3.42;;;3.60;99.90;;;;;;5030274;28;20030;-80
2022/04/02 01:07:15;;;;;;;5.07;3.47;;;3.50;99.90;;;;;;5029231;28;20529;-78
2022/04/02 01:09:43;;;;;;;8.25;3.70;;;3.40;99.90;;;;;;5027316;28;20116;-77
2022/04/02 01:12:11;;;;;;;5.57;3.47;;;3.30;99.90;;;;;;5031804;28;20045;-77
2022/04/02 01:14:40;;;;;;;6.75;3.65;;;3.20;99.90;;;;;;5027030;28;20124;-77
2022/04/02 01:17:06;;;;;;;5.50;3.30;;;3.30;99.90;;;;;;5028458;28;20033;-78
2022/04/02 01:19:33;;;;;;;5.07;3.67;;;3.20;99.90;;;;;;5035104;28;20060;-78
2022/04/02 01:22:01;;;;;;;6.78;3.35;;;3.10;99.90;;;;;;5032800;28;20487;-76
2022/04/02 01:24:27;;;;;;;7.47;3.70;;;3.10;99.90;;;;;;4999142;28;20084;-78
2022/04/02 01:26:55;;;;;;;6.25;3.28;;;3.10;99.90;;;;;;5030452;28;20409;-78
2022/04/02 01:29:22;;;;;;;4.88;3.25;;;3.10;99.90;;;;;;5030635;28;20397;-77
2022/04/02 01:31:49;;;;;;;6.65;4.32;;;3.20;99.90;;;;;;5023483;28;20013;-78
2022/04/02 01:34:15;;;;;;;8.30;4.45;;;3.10;99.90;;;;;;5010749;28;20045;-78
2022/04/02 01:36:41;;;;;;;7.45;4.40;;;3.10;99.90;;;;;;5030216;28;20037;-76
2022/04/02 01:39:09;;;;;;;6.03;3.85;;;3.10;99.90;;;;;;5024914;28;20026;-79
2022/04/02 01:41:36;;;;;;;7.00;3.40;;;3.10;99.90;;;;;;5011217;28;20022;-78
2022/04/02 01:44:03;;;;;;;6.05;4.10;;;3.10;99.90;;;;;;5033741;28;20026;-78
2022/04/02 01:46:31;;;;;;;5.22;3.50;;;3.10;99.90;;;;;;5030594;28;20117;-78
2022/04/02 01:48:58;;;;;;;4.88;3.40;;;3.20;99.90;;;;;;5040059;28;20044;-77
2022/04/02 01:51:24;;;;;;;6.82;3.80;;;3.20;99.90;;;;;;5046796;28;20071;-77
2022/04/02 01:53:52;;;;;;;4.72;3.42;;;3.40;99.90;;;;;;5033366;28;20433;-78
2022/04/02 01:56:19;;;;;;;5.57;3.70;;;3.40;99.90;;;;;;5030655;28;20041;-79
2022/04/02 01:58:46;;;;;;;5.50;4.35;;;3.30;99.90;;;;;;5042845;28;20093;-78
2022/04/02 02:01:13;;;;;;;5.15;3.92;;;3.30;99.90;;;;;;5032336;28;20030;-79
2022/04/02 02:03:40;;;;;;;6.82;4.40;;;3.20;99.90;;;;;;5025878;28;20410;-79
2022/04/02 02:06:10;;;;;;;6.97;4.30;;;3.10;99.90;;;;;;5027638;28;20544;-78
2022/04/02 02:08:36;;;;;;;5.85;4.38;;;3.20;99.90;;;;;;5025065;28;20092;-79
2022/04/02 02:11:05;;;;;;;5.47;4.10;;;3.10;99.90;;;;;;5033178;28;20037;-79
2022/04/02 02:13:32;;;;;;;5.95;4.30;;;3.10;99.90;;;;;;5023735;28;20124;-79
2022/04/02 02:15:59;;;;;;;5.15;4.18;;;3.10;99.90;;;;;;5042344;28;20029;-77
2022/04/02 02:18:28;;;;;;;5.68;3.75;;;3.10;99.90;;;;;;5048106;28;20033;-77
2022/04/02 02:20:56;;;;;;;4.97;4.00;;;3.20;99.90;;;;;;5030539;28;20099;-78
2022/04/02 02:23:22;;;;;;;6.30;4.55;;;3.30;99.90;;;;;;5041356;28;20029;-79
2022/04/02 02:25:50;;;;;;;5.90;3.72;;;3.30;99.90;;;;;;5043038;28;20084;-77
2022/04/02 02:28:16;;;;;;;5.50;3.90;;;3.30;99.90;;;;;;5051592;28;20060;-78
2022/04/02 02:30:44;;;;;;;4.55;3.55;;;3.40;99.90;;;;;;5044800;28;20013;-77
2022/04/02 02:35:55;;;;;;;6.07;3.70;;;3.20;99.90;;;;;;5043142;28;20068;-77
2022/04/02 02:38:24;;;;;;;5.00;3.38;;;3.20;99.90;;;;;;5023465;28;20037;-79
2022/04/02 02:40:52;;;;;;;6.30;3.60;;;3.20;99.90;;;;;;5048784;28;20025;-79
2022/04/02 02:43:21;;;;;;;4.75;3.50;;;3.30;99.90;;;;;;5013771;28;20104;-82
2022/04/02 02:45:48;;;;;;;5.05;3.40;;;3.40;99.90;;;;;;5035083;28;20025;-80
2022/04/02 02:48:13;;;;;;;6.30;3.28;;;3.30;99.90;;;;;;5035290;28;20099;-80
2022/04/02 02:50:43;;;;;;;5.63;3.10;;;3.30;99.90;;;;;;5040309;28;20081;-80
2022/04/02 02:53:10;;;;;;;3.72;2.90;;;3.30;99.90;;;;;;5040461;28;20080;-79
2022/04/02 02:55:37;;;;;;;5.18;3.50;;;3.20;99.90;;;;;;5020211;28;20049;-80
2022/04/02 02:58:04;;;;;;;5.78;3.50;;;3.20;99.90;;;;;;5040923;28;20429;-79
2022/04/02 03:00:30;;;;;;;6.47;3.90;;;3.10;99.90;;;;;;5032380;28;20098;-80
2022/04/02 03:02:56;;;;;;;5.43;3.50;;;3.20;99.90;;;;;;5043137;28;20060;-81
2022/04/02 03:05:23;;;;;;;5.95;3.08;;;3.10;99.90;;;;;;5042120;28;20055;-81
2022/04/02 03:07:50;;;;;;;4.50;3.00;;;3.20;99.90;;;;;;5047762;28;20092;-81
2022/04/02 03:10:30;;;;;;;4.82;3.20;;;3.20;99.90;;;;;;5056546;28;20020;-81
2022/04/02 03:12:57;;;;;;;6.38;3.20;;;3.10;99.90;;;;;;5041604;28;20029;-80
2022/04/02 03:15:25;;;;;;;3.85;2.80;;;3.20;99.90;;;;;;5047385;28;20026;-80
2022/04/02 03:17:55;;;;;;;4.10;3.13;;;3.20;99.90;;;;;;5055604;28;20060;-79
2022/04/02 03:20:22;;;;;;;4.72;3.05;;;3.20;99.90;;;;;;5055958;28;20048;-80
2022/04/02 03:22:51;;;;;;;4.70;2.60;;;3.20;99.90;;;;;;5055009;28;20016;-80
2022/04/02 03:25:24;;;;;;;4.10;2.97;;;3.30;99.90;;;;;;5055381;28;20037;-80
2022/04/02 03:27:50;;;;;;;5.18;2.85;;;3.40;99.90;;;;;;5055538;28;20060;-79
2022/04/02 03:30:18;;;;;;;5.03;2.90;;;3.30;99.90;;;;;;5043875;28;20022;-81
2022/04/02 03:32:46;;;;;;;4.25;2.60;;;3.20;99.90;;;;;;5053059;28;20013;-82
2022/04/02 03:35:16;;;;;;;5.53;2.95;;;3.30;99.90;;;;;;5056960;28;20010;-81
2022/04/02 03:37:44;;;;;;;5.13;2.78;;;3.40;99.90;;;;;;5057491;28;20032;-81
2022/04/02 03:40:14;;;;;;;4.25;2.53;;;3.30;99.90;;;;;;5051378;28;20029;-82
2022/04/02 03:42:41;;;;;;;4.18;2.60;;;3.30;99.90;;;;;;5048162;28;20104;-80
2022/04/02 03:45:09;;;;;;;4.32;2.80;;;3.20;99.90;;;;;;5044362;28;20040;-81
2022/04/02 03:47:35;;;;;;;5.45;2.80;;;3.10;99.90;;;;;;5050652;28;20021;-80
2022/04/02 03:50:03;;;;;;;5.40;2.92;;;3.10;99.90;;;;;;5033864;28;20405;-79
2022/04/02 03:52:29;;;;;;;3.63;2.88;;;3.20;99.90;;;;;;5027739;28;20112;-80
2022/04/02 03:54:55;;;;;;;4.10;2.40;;;3.20;99.90;;;;;;5038529;28;20036;-79
2022/04/02 03:57:21;;;;;;;4.18;2.58;;;3.30;99.90;;;;;;5031573;28;20029;-81
2022/04/02 03:59:47;;;;;;;4.68;2.50;;;3.30;99.90;;;;;;5036650;28;20063;-79
2022/04/02 04:02:13;;;;;;;4.20;2.78;;;3.20;99.90;;;;;;5043882;28;20033;-79
2022/04/02 04:04:40;;;;;;;4.35;2.85;;;3.10;99.90;;;;;;5049875;28;20013;-82
2022/04/02 04:07:07;;;;;;;6.93;3.40;;;3.00;99.90;;;;;;5056813;28;20037;-82
2022/04/02 04:09:33;;;;;;;6.45;2.92;;;3.00;99.90;;;;;;5056384;28;20033;-80
2022/04/02 04:11:59;;;;;;;3.83;2.67;;;3.00;99.90;;;;;;5056296;28;20121;-80
2022/04/02 04:14:26;;;;;;;4.18;2.92;;;3.00;99.90;;;;;;5035420;28;20557;-80
2022/04/02 04:19:28;;;;;;;6.05;3.20;;;;;;;;;;5263843;23;20047;-79
2022/04/02 04:21:56;;;;;;;4.20;2.83;;;4.40;99.90;;;;;;4988285;28;20479;-80
2022/04/02 04:24:22;;;;;;;3.75;2.80;;;3.10;99.90;;;;;;4988541;28;20026;-79
2022/04/02 04:26:49;;;;;;;5.32;3.17;;;2.90;99.90;;;;;;5011804;28;20053;-80
2022/04/02 04:29:15;;;;;;;6.13;3.17;;;;;;;;;;5017141;28;20029;-80
2022/04/02 04:31:41;;;;;;;4.78;3.10;;;;;;;;;;5023354;28;20382;-79
2022/04/02 04:34:08;;;;;;;4.03;2.80;;;2.60;99.90;;;;;;5021006;28;20029;-80
2022/04/02 04:36:36;;;;;;;6.43;3.22;;;1.80;99.90;;;;;;5038999;28;20478;-80
2022/04/02 04:39:03;;;;;;;5.75;3.40;;;2.80;99.90;;;;;;5021281;28;20022;-80
2022/04/02 04:41:31;;;;;;;4.03;3.10;;;1.00;99.90;;;;;;5020860;28;20470;-80
2022/04/02 04:43:57;;;;;;;5.13;3.20;;;2.70;99.90;;;;;;5021529;28;20037;-80
2022/04/02 04:48:59;;;;;;;5.45;3.38;;;2.90;99.90;;;;;;5497870;23;20351;-80
2022/04/02 04:51:25;;;;;;;6.88;3.60;;;;;;;;;;4993786;28;20034;-80
2022/04/02 04:53:52;;;;;;;4.70;2.88;;;3.00;99.90;;;;;;5004783;28;20019;-81
2022/04/02 04:56:19;;;;;;;5.68;3.33;;;4.90;99.90;;;;;;4999071;28;20034;-80
2022/04/02 04:58:45;;;;;;;6.57;3.13;;;;;;;;;;4993934;28;20034;-80
2022/04/02 05:01:15;;;;;;;5.00;3.20;;;;;;;;;;4999695;28;20402;-81
2022/04/02 05:03:43;;;;;;;4.47;3.15;;;4.50;99.90;;;;;;5006738;28;20029;-82
2022/04/02 05:06:11;;;;;;;5.93;3.83;;;2.70;99.90;;;;;;5032948;23;20045;-79
2022/04/02 05:08:37;;;;;;;4.38;3.50;;;2.60;99.90;;;;;;5044605;28;20032;-80
2022/04/02 05:11:10;;;;;;;5.03;3.50;;;5.10;99.90;;;;;;5057975;28;20116;-81
2022/04/02 05:13:41;;;;;;;6.18;3.70;;;2.60;99.90;;;;;;5053627;28;20045;-80
2022/04/02 05:16:08;;;;;;;6.80;3.80;;;2.70;99.90;;;;;;5060335;28;20005;-81
2022/04/02 05:18:34;;;;;;;4.38;3.33;;;;;;;;;;5059933;28;20009;-80
2022/04/02 05:21:02;;;;;;;5.45;3.80;;;;;;;;;;5076762;28;20096;-80
2022/04/02 05:23:29;;;;;;;5.30;3.67;;;2.70;99.90;;;;;;5075749;28;20036;-79
2022/04/02 05:26:35;;;;;;;7.35;3.50;;;4.00;99.90;;;;;;5056176;28;20025;-81
2022/04/02 05:29:02;;;;;;;6.00;3.28;;;3.10;99.90;;;;;;5044084;28;20044;-80
2022/04/02 05:31:30;;;;;;;9.63;4.75;;;5.00;99.90;;;;;;5061493;28;20079;-78
2022/04/02 05:33:56;;;;;;;5.72;3.85;;;2.70;99.90;;;;;;5019454;28;20033;-77
2022/04/02 05:36:23;;;;;;;5.15;3.92;;;2.60;99.90;;;;;;5056890;28;20048;-78
2022/04/02 05:38:50;;;;;;;6.35;3.92;;;2.60;99.90;;;;;;5046349;28;20443;-80
2022/04/02 05:41:18;;;;;;;7.15;4.53;;;2.60;99.90;;;;;;5042433;28;20124;-80
2022/04/02 05:43:45;;;;;;;8.18;4.00;;;2.60;99.90;;;;;;5044429;28;20100;-80
2022/04/02 05:46:14;;;;;;;5.78;3.40;;;2.70;99.90;;;;;;5039761;28;20096;-78
2022/04/02 05:48:42;;;;;;;4.97;3.40;;;2.70;99.90;;;;;;5056482;28;20048;-80
2022/04/02 05:51:08;;;;;;;4.88;3.05;;;2.70;99.90;;;;;;5046338;28;20022;-80
2022/04/02 05:53:36;;;;;;;5.22;3.50;;;2.80;99.90;;;;;;5032034;28;20022;-79
2022/04/02 05:56:02;;;;;;;4.80;3.22;;;2.80;99.90;;;;;;5034868;28;20036;-77
2022/04/02 05:58:30;;;;;;;6.55;3.47;;;2.70;99.90;;;;;;5045594;28;20041;-77
2022/04/02 06:00:57;;;;;;;6.38;3.50;;;2.70;99.90;;;;;;5065124;28;20079;-77
2022/04/02 06:03:24;;;;;;;4.15;2.85;;;2.80;99.90;;;;;;5051624;28;20027;-77
2022/04/02 06:05:51;;;;;;;4.35;3.00;;;2.90;99.90;;;;;;5043064;28;20025;-76
2022/04/02 06:08:18;;;;;;;4.75;2.95;;;2.90;99.90;;;;;;5044512;28;20125;-79
2022/04/02 06:10:46;;;;;;;8.48;3.28;;;2.90;99.90;;;;;;5044688;28;20025;-77
2022/04/02 06:13:13;;;;;;;5.60;3.05;;;2.80;99.90;;;;;;5061549;28;20044;-77
2022/04/02 06:15:42;;;;;;;7.65;3.28;;;2.70;99.90;;;;;;5070899;28;20036;-78
2022/04/02 06:18:11;;;;;;;9.15;3.70;;;2.80;99.90;;;;;;5029932;28;20221;-76
2022/04/02 06:20:37;;;;;;;5.18;3.45;;;2.70;99.90;;;;;;5067365;28;20025;-82
2022/04/02 06:23:03;;;;;;;5.45;3.28;;;2.70;99.90;;;;;;5063726;28;20090;-80
2022/04/02 06:28:21;;;;;;;4.15;2.85;;;2.80;99.90;;;;;;5044750;22;20049;-78
2022/04/02 06:30:51;;;;;;;3.90;2.67;;;1.60;99.90;;;;;;5023513;28;20033;-80
2022/04/02 06:33:17;;;;;;;6.03;3.92;;;2.20;99.90;;;;;;5023440;28;20493;-80
2022/04/02 06:35:43;;;;;;;4.05;2.88;;;;;;;;;;5024610;28;20048;-80
2022/04/02 06:38:13;;;;;;;5.25;3.15;;;2.90;99.90;;;;;;5042367;28;20092;-80
2022/04/02 06:40:39;;;;;;;5.72;3.00;;;;;;;;;;5042216;28;20032;-80
2022/04/02 06:43:06;;;;;;;4.70;2.85;;;2.90;99.90;;;;;;5023884;28;20025;-81
2022/04/02 06:45:32;;;;;;;4.80;3.00;;;;;;;;;;5044671;28;20034;-82
2022/04/02 06:47:58;;;;;;;4.25;2.47;;;;;;;;;;5056645;28;20029;-80
2022/04/02 06:50:24;;;;;;;5.00;3.05;;;;;;;;;;5050761;28;20013;-82
2022/04/02 06:52:50;;;;;;;4.75;2.97;;;;;;;;;;5054876;28;20010;-82
2022/04/02 06:55:16;;;;;;;5.03;3.28;;;;;;;;;;5033552;28;20029;-80
2022/04/02 06:57:44;;;;;;;4.97;3.10;;;2.90;99.90;;;;;;5034811;28;20040;-81
2022/04/02 07:00:14;;;;;;;4.28;2.83;;;1.40;99.90;;;;;;5054875;28;20025;-80
2022/04/02 07:02:40;;;;;;;5.93;3.35;;;2.60;99.90;;;;;;5052325;28;20033;-81
2022/04/02 07:05:21;;;;;;;6.75;3.10;;;2.60;99.90;;;;;;5051366;28;20086;-81
2022/04/02 07:08:07;;;;;;;4.63;3.22;;;3.00;99.90;;;;;;5046625;28;20071;-80
2022/04/02 07:10:46;;;;;;;6.13;2.95;;;2.90;99.90;;;;;;5027828;28;20038;-80
2022/04/02 07:13:12;;;;;;;5.18;3.25;;;;;;;;;;5058128;28;20032;-80
2022/04/02 07:15:42;;;;;;;4.70;2.88;;;3.30;99.90;;;;;;5055154;28;20018;-80
2022/04/02 07:18:09;;;;;;;7.00;2.80;;;3.10;99.90;;;;;;5021850;28;20061;-80
2022/04/02 07:20:38;;;;;;;6.75;3.20;;;3.30;99.90;;;;;;5046942;28;20036;-80
2022/04/02 07:23:09;;;;;;;5.47;3.13;;;3.30;99.90;;;;;;5023993;28;20059;-81
2022/04/02 07:25:55;;;;;;;4.95;3.13;;;3.50;99.90;;;;;;5024675;28;20021;-81
2022/04/02 07:28:27;;;;;;;5.32;3.17;;;3.20;99.90;;;;;;5056073;28;20051;-79
2022/04/02 07:30:53;;;;;;;4.88;2.70;;;2.60;99.90;;;;;;5018858;28;20067;-80
2022/04/02 07:33:19;;;;;;;4.45;3.05;;;;;;;;;;5025711;28;20089;-81
2022/04/02 07:36:00;;;;;;;6.13;2.92;;;3.40;99.90;;;;;;5049091;28;20043;-78
2022/04/02 07:38:48;;;;;;;4.50;2.97;;;3.40;99.90;;;;;;5017437;28;20033;-79
2022/04/02 07:41:36;;;;;;;4.85;3.00;;;3.40;99.90;;;;;;5037610;28;20037;-79
2022/04/02 07:44:20;;;;;;;5.88;3.05;;;3.40;99.90;;;;;;5018225;28;20034;-78
2022/04/02 07:46:53;;;;;;;4.65;2.80;;;3.40;99.90;;;;;;5048314;23;20037;-85
2022/04/02 07:50:21;;;;;;;4.72;2.75;;;2.30;99.90;;;;;;5054369;28;20021;-83
2022/04/02 07:53:43;;;;;;;4.82;2.50;;;3.10;99.90;;;;;;5073574;28;20040;-85
2022/04/02 07:56:50;;;;;;;3.90;2.50;;;2.30;99.90;;;;;;5051055;28;20017;-85
2022/04/02 07:59:32;;;;;;;4.15;3.05;;;3.50;99.90;;;;;;5047198;23;20926;-83
2022/04/02 08:01:59;;;;;;;10.20;2.97;;;3.50;99.90;;;;;;5040703;28;20026;-82
2022/04/02 08:04:26;;;;;;;7.20;2.55;;;3.50;99.90;;;;;;5026218;28;20043;-84
2022/04/02 08:06:53;;;;;;;3.65;2.53;;;3.50;99.90;;;;;;5031159;28;20025;-83
2022/04/02 08:09:20;;;;;;;3.70;2.10;;;3.50;99.90;;;;;;5023463;28;20017;-83
2022/04/02 08:11:48;;;;;;;4.38;2.50;;;3.50;99.90;;;;;;5042543;28;20033;-82
2022/04/02 08:14:15;;;;;;;4.85;2.70;;;5.10;99.90;;;;;;5018404;28;20482;-84
2022/04/02 08:16:43;;;;;;;5.13;2.63;;;3.60;99.90;;;;;;5020429;28;20030;-81
2022/04/02 08:19:11;;;;;;;4.25;2.83;;;3.50;99.90;;;;;;5039430;28;20089;-79
2022/04/02 08:21:37;;;;;;;3.72;2.72;;;3.50;99.90;;;;;;5023899;28;20032;-80
2022/04/02 08:24:04;;;;;;;6.22;3.60;;;3.50;99.90;;;;;;5023397;28;20129;-82
2022/04/02 08:26:57;;;;;;;4.70;2.80;;;3.50;99.90;;;;;;5036189;28;20037;-82
2022/04/02 08:30:04;;;;;;;3.92;2.42;;;3.60;99.90;;;;;;5033969;28;20057;-81
2022/04/02 08:32:41;;;;;;;5.05;2.88;;;3.60;99.90;;;;;;5022513;28;20048;-83
2022/04/02 08:35:11;;;;;;;4.10;2.50;;;3.60;99.90;;;;;;5035592;28;20053;-85
2022/04/02 08:38:09;;;;;;;5.97;2.88;;;3.60;99.90;;;;;;5035197;28;20474;-82
2022/04/02 08:41:13;;;;;;;4.55;2.30;;;3.70;99.90;;;;;;5044774;28;20029;-82
2022/04/02 08:44:01;;;;;;;5.85;2.45;;;3.80;99.90;;;;;;5043543;28;20065;-81
2022/04/02 08:47:04;;;;;;;3.90;2.45;;;3.80;99.90;;;;;;5039696;28;20081;-83
2022/04/02 08:49:53;;;;;;;5.10;2.75;;;3.70;99.90;;;;;;5029494;28;20033;-81
2022/04/02 08:52:30;;;;;;;6.75;2.17;;;3.70;99.90;;;;;;5025474;28;20045;-80
2022/04/02 08:55:15;;;;;;;4.72;2.67;;;3.80;99.90;;;;;;5047138;28;20021;-81
2022/04/02 08:57:53;;;;;;;6.68;3.05;;;3.80;99.90;;;;;;5024768;28;20029;-81
2022/04/02 09:00:25;;;;;;;7.22;2.78;;;3.90;99.90;;;;;;5037356;28;20045;-81
2022/04/02 09:02:54;;;;;;;4.32;2.75;;;4.00;99.90;;;;;;5040889;28;20123;-80
2022/04/02 09:05:39;;;;;;;6.25;2.88;;;4.10;99.90;;;;;;5039157;28;20128;-81
2022/04/02 09:08:36;;;;;;;4.35;2.40;;;4.00;99.90;;;;;;5045014;28;20035;-81
2022/04/02 09:11:23;;;;;;;3.60;2.30;;;4.00;99.90;;;;;;5020669;28;20098;-84
2022/04/02 09:14:12;;;;;;;4.10;2.58;;;4.10;99.90;;;;;;5025251;28;20072;-80
2022/04/02 09:16:53;;;;;;;4.63;2.50;;;3.90;99.90;;;;;;5018918;28;20031;-80
2022/04/02 09:19:37;;;;;;;;;;;3.90;99.90;;;;;;5033047;28;20059;-80
2022/04/02 09:22:11;;;;;;;4.78;2.70;;;4.00;99.90;;;;;;5014005;28;19913;-84
2022/04/02 09:24:55;;;;;;;4.22;2.53;;;4.10;99.90;;;;;;5036412;28;20040;-80
2022/04/02 09:27:46;;;;;;;6.30;2.88;;;4.70;99.90;;;;;;5035364;28;20518;-82
2022/04/02 09:30:43;;;;;;;3.03;2.08;;;3.90;99.90;;;;;;5037198;28;20029;-82
2022/04/02 09:33:30;;;;;;;5.93;2.67;;;4.30;99.90;;;;;;5039077;28;20478;-80
2022/04/02 09:36:34;;;;;;;4.95;2.17;;;4.30;99.90;;;;;;5046059;28;20040;-83
2022/04/02 09:39:18;;;;;;;4.82;2.60;;;5.10;99.90;;;;;;5033359;28;20053;-81
2022/04/02 09:42:13;;;;;;;6.97;2.58;;;4.30;99.90;;;;;;5039662;28;20056;-82
2022/04/02 09:44:49;;;;;;;4.95;2.75;;;4.40;99.90;;;;;;5035718;28;20057;-82
2022/04/02 09:47:40;;;;;;;3.03;2.33;;;4.40;99.90;;;;;;5041473;28;20039;-82
2022/04/02 09:50:12;;;;;;;4.40;2.50;;;4.40;99.90;;;;;;4990729;28;20115;-83
2022/04/02 09:52:55;;;;;;;4.35;2.38;;;4.50;99.90;;;;;;5022764;28;20025;-83
2022/04/02 09:55:23;;;;;;;4.10;2.47;;;4.50;99.90;;;;;;5020252;28;20048;-82
2022/04/02 09:58:31;;;;;;;4.63;2.60;;;4.60;99.90;;;;;;5032035;28;20057;-82
2022/04/02 10:01:10;;;;;;;5.50;2.35;;;4.60;99.90;;;;;;5038709;28;20460;-83
2022/04/02 10:04:00;;;;;;;7.13;2.25;;;4.60;99.90;;;;;;5025474;28;20282;-79
2022/04/02 10:06:56;;;;;;;5.68;2.50;;;4.70;99.90;;;;;;5028417;28;20115;-82
2022/04/02 10:09:49;;;;;;;4.95;2.60;;;4.60;99.90;;;;;;5024223;28;20033;-82
2022/04/02 10:12:17;;;;;;;3.92;2.40;;;4.60;99.90;;;;;;5015962;28;20041;-84
2022/04/02 10:14:44;;;;;;;4.68;2.47;;;4.70;99.90;;;;;;5027253;28;20053;-84
2022/04/02 10:17:13;;;;;;;5.25;2.05;;;4.70;99.90;;;;;;5025905;28;20053;-83
2022/04/02 10:19:44;;;;;;;4.30;2.22;;;4.80;99.90;;;;;;5031240;28;20029;-83
2022/04/02 10:22:16;;;;;;;4.28;2.72;;;4.90;99.90;;;;;;5034641;28;20048;-82
2022/04/02 10:24:57;;;;;;;4.05;2.40;;;4.60;99.90;;;;;;5025322;28;20022;-82
2022/04/02 10:27:34;;;;;;;6.00;2.60;;;4.60;99.90;;;;;;5030024;28;20088;-82
2022/04/02 10:30:19;;;;;;;4.15;2.28;;;4.70;99.90;;;;;;5020098;28;20060;-82
2022/04/02 10:33:27;;;;;;;4.05;2.80;;;4.70;99.90;;;;;;5040999;28;20024;-82
2022/04/02 10:35:55;;;;;;;4.60;2.38;;;4.60;99.90;;;;;;5015035;28;20041;-81
2022/04/02 10:38:34;;;;;;;8.13;2.60;;;4.70;99.90;;;;;;5021341;28;20030;-81
2022/04/02 10:41:14;;;;;;;6.00;3.03;;;4.80;99.90;;;;;;5029775;28;20040;-83
2022/04/02 10:43:59;;;;;;;3.38;2.45;;;4.90;99.90;;;;;;5039848;28;20072;-81
2022/04/02 10:46:26;;;;;;;7.68;2.92;;;4.90;99.90;;;;;;5025759;28;20096;-81
2022/04/02 10:49:05;;;;;;;4.38;2.78;;;5.00;99.90;;;;;;5017525;28;20094;-81
2022/04/02 10:51:33;;;;;;;5.45;2.50;;;5.10;99.90;;;;;;5029887;28;20112;-81
2022/04/02 10:54:03;;;;;;;5.82;2.70;;;5.00;99.90;;;;;;5023505;28;20026;-82
2022/04/02 10:56:35;;;;;;;7.43;2.53;;;5.00;99.90;;;;;;5027733;28;20017;-82
2022/04/02 10:59:01;;;;;;;4.75;2.42;;;5.00;99.90;;;;;;5038396;28;20413;-82
2022/04/02 11:01:29;;;;;;;6.45;3.03;;;5.00;99.90;;;;;;5026988;28;20116;-82
2022/04/02 11:03:56;;;;;;;4.80;2.67;;;4.90;99.90;;;;;;5042952;28;20108;-82
2022/04/02 11:06:49;;;;;;;3.95;2.58;;;4.90;99.90;;;;;;5024185;28;20549;-82
2022/04/02 11:09:33;;;;;;;5.70;2.42;;;4.90;99.90;;;;;;5020739;28;20033;-83
2022/04/02 11:12:03;;;;;;;5.38;2.85;;;4.80;99.90;;;;;;5017445;28;20430;-81
2022/04/02 11:14:43;;;;;;;6.22;2.80;;;4.60;99.90;;;;;;5037046;28;20107;-81
2022/04/02 11:17:43;;;;;;;4.97;2.50;;;4.70;99.90;;;;;;5046659;28;20189;-83
2022/04/02 11:20:18;;;;;;;5.80;2.40;;;4.70;99.90;;;;;;4993636;28;20040;-82
2022/04/02 11:22:52;;;;;;;4.32;2.45;;;4.70;99.90;;;;;;5038598;28;20161;-83
2022/04/02 11:25:29;;;;;;;3.47;2.70;;;4.70;99.90;;;;;;5035191;28;20044;-81
2022/04/02 11:27:58;;;;;;;4.07;2.20;;;4.80;99.90;;;;;;5041169;28;20144;-80
2022/04/02 11:30:31;;;;;;;4.30;2.33;;;5.00;99.90;;;;;;5032280;28;20053;-79
2022/04/02 11:33:13;;;;;;;6.00;2.58;;;5.10;99.90;;;;;;5017408;28;20052;-81
2022/04/02 11:35:50;;;;;;;4.82;2.58;;;5.20;99.90;;;;;;5039261;28;20032;-83
2022/04/02 11:38:23;;;;;;;5.82;2.65;;;5.30;99.90;;;;;;5036476;28;20029;-82
2022/04/02 11:41:08;;;;;;;4.38;2.50;;;5.90;99.90;;;;;;5031283;28;20045;-83
2022/04/02 11:43:40;;;;;;;4.55;2.70;;;5.40;99.90;;;;;;5020180;28;20109;-84
2022/04/02 11:46:09;;;;;;;5.05;2.50;;;5.40;99.90;;;;;;5035666;28;20033;-81
2022/04/02 11:48:50;;;;;;;4.45;2.67;;;5.60;99.90;;;;;;5029974;28;20029;-83
2022/04/02 11:51:18;;;;;;;5.68;2.80;;;5.50;99.90;;;;;;5035337;28;20116;-83
2022/04/02 11:53:44;;;;;;;5.25;3.20;;;5.50;99.90;;;;;;5032299;28;20091;-81
2022/04/02 11:56:34;;;;;;;5.25;3.40;;;6.60;99.90;;;;;;5020340;28;20037;-82
2022/04/02 11:59:07;;;;;;;5.20;3.53;;;5.20;99.90;;;;;;5018559;28;20087;-82
2022/04/02 12:01:43;;;;;;;6.53;3.15;;;5.20;99.90;;;;;;5025765;28;20485;-83
2022/04/02 12:04:14;;;;;;;7.05;3.60;;;5.10;99.90;;;;;;5037885;28;20025;-82
2022/04/02 12:06:42;;;;;;;6.05;3.40;;;5.10;99.90;;;;;;5038645;28;20025;-82
2022/04/02 12:09:14;;;;;;;6.25;3.38;;;5.20;99.90;;;;;;5017863;28;20112;-82
2022/04/02 12:11:53;;;;;;;4.93;3.25;;;5.00;99.90;;;;;;5035952;28;20108;-84
2022/04/02 12:14:31;;;;;;;5.78;3.55;;;5.00;99.90;;;;;;5024277;28;20029;-81
2022/04/02 12:17:05;;;;;;;4.57;3.20;;;4.90;99.90;;;;;;5030536;28;20029;-84
2022/04/02 12:19:37;;;;;;;5.28;3.50;;;4.80;99.90;;;;;;5029280;28;20059;-82
2022/04/02 12:22:04;;;;;;;6.82;3.45;;;4.70;99.90;;;;;;5015305;28;20029;-84
2022/04/02 12:24:39;;;;;;;6.15;3.20;;;4.70;99.90;;;;;;5015125;28;20197;-82
2022/04/02 12:27:06;;;;;;;7.32;4.65;;;4.70;99.90;;;;;;5031203;28;20083;-83
2022/04/02 12:29:33;;;;;;;5.63;3.53;;;4.50;99.90;;;;;;5019937;28;20027;-83
2022/04/02 12:32:00;;;;;;;5.22;3.28;;;4.70;99.90;;;;;;5034660;28;20040;-84
2022/04/02 12:34:28;;;;;;;6.18;3.50;;;4.40;99.90;;;;;;5033532;28;20026;-81
2022/04/02 12:37:03;;;;;;;6.07;3.47;;;5.80;99.90;;;;;;5021550;28;20021;-81
2022/04/02 12:39:29;;;;;;;7.38;4.05;;;4.50;99.90;;;;;;5014435;28;20054;-82
2022/04/02 12:41:55;;;;;;;7.20;3.58;;;4.50;99.90;;;;;;5042073;28;20109;-84
2022/04/02 12:44:23;;;;;;;5.47;3.50;;;5.20;99.90;;;;;;5037294;28;20035;-84
2022/04/02 12:46:51;;;;;;;7.90;3.97;;;5.00;99.90;;;;;;5017311;28;20541;-83
2022/04/02 12:49:46;;;;;;;8.50;3.75;;;4.60;99.90;;;;;;5021056;28;20036;-81
2022/04/02 12:52:15;;;;;;;4.57;3.17;;;4.50;99.90;;;;;;5030143;28;20045;-81
2022/04/02 12:54:52;;;;;;;8.73;3.72;;;5.30;99.90;;;;;;5018536;28;20034;-83
2022/04/02 12:57:18;;;;;;;6.85;3.50;;;4.50;99.90;;;;;;5021788;28;20040;-85
2022/04/02 12:59:52;;;;;;;6.57;3.58;;;4.70;99.90;;;;;;5029215;28;20028;-81
2022/04/02 13:02:22;;;;;;;6.05;3.90;;;4.40;99.90;;;;;;5022379;28;20053;-86
2022/04/02 13:04:55;;;;;;;8.45;4.35;;;4.50;99.90;;;;;;5041990;28;20100;-81
2022/04/02 13:07:22;;;;;;;5.35;3.28;;;4.70;99.90;;;;;;5026108;28;20037;-82
2022/04/02 13:09:53;;;;;;;6.75;3.60;;;4.80;99.90;;;;;;5042622;28;20032;-83
2022/04/02 13:12:21;;;;;;;;;;;4.90;99.90;;;;;;5023482;28;20053;-81
2022/04/02 13:14:55;;;;;;;7.15;4.00;;;4.80;99.90;;;;;;5026079;28;19996;-82
2022/04/02 13:17:21;;;;;;;5.43;3.53;;;4.70;99.90;;;;;;5023204;28;20034;-81
2022/04/02 13:22:40;;;;;;;6.13;4.05;;;4.60;99.90;;;;;;5039055;28;20036;-79
2022/04/02 13:25:13;;;;;;;7.50;3.95;;;4.50;99.90;;;;;;5024720;28;20026;-81
2022/04/02 13:28:16;;;;;;;6.03;3.55;;;5.20;99.90;;;;;;5036192;28;20037;-84
2022/04/02 13:30:48;;;;;;;5.63;3.90;;;4.50;99.90;;;;;;5036779;28;20022;-81
2022/04/02 13:33:32;;;;;;;6.25;3.70;;;4.40;99.90;;;;;;5017545;28;20069;-84
2022/04/02 13:36:21;;;;;;;5.57;3.83;;;4.50;99.90;;;;;;5038051;28;20041;-82
2022/04/02 13:38:55;;;;;;;6.35;4.10;;;4.60;99.90;;;;;;5024121;28;20358;-82
2022/04/02 13:41:52;;;;;;;5.20;3.47;;;4.70;99.90;;;;;;5026154;28;20037;-81
2022/04/02 13:44:20;;;;;;;5.53;3.90;;;4.70;99.90;;;;;;5039981;28;20063;-81